Change the Weather History Date:

Sunday, June 9, 2013

  Actual Average Record
Temperature  
Mean Temperature 68 °F -  
Max Temperature 82 °F 81 °F 104 °F (1985)
Min Temperature 55 °F 55 °F 40 °F (1966)
Cooling Degree Days 4    
Growing Degree Days 18 (Base 50)    
Moisture  
Dew Point 47 °F    
Average Humidity 50    
Maximum Humidity 82    
Minimum Humidity 25    
Precipitation  
Precipitation 0.00 in - - ()
Sea Level Pressure  
Sea Level Pressure 29.90 in    
Wind  
Wind Speed 12 mph (NW)    
Max Wind Speed 24 mph    
Max Gust Speed 33 mph    
Visibility 10 miles    
Events      
Averages and records for this station are not official NWS values.
T = Trace of Precipitation, MM = Missing Value Source: NWS Daily Summary

Daily Weather History Graph

Daily Weather History Graph

Search for Another Location

Airport or City:

Trip Planner

Search our weather history database for the weather conditions in past years. The results will help you decide how hot, cold, wet, or windy it might be!

Date:

Astronomy

Jun. 09, 2013 Rise Set
Actual Time 6:06 AM CDT 9:06 PM CDT
Civil Twilight 5:33 AM CDT 9:39 PM CDT
Nautical Twilight 4:52 AM CDT 10:21 PM CDT
Astronomical Twilight 4:03 AM CDT 11:10 PM CDT
Moon 7:04 AM CDT (6/9) 9:54 PM CDT (6/9)
Length of Visible Light 16h 05m
Length of Day
15h 00m
New Moon, 1% of the Moon is Illuminated
Jun 9
New Moon
Jun 16
First Quarter
Jun 23
Full
Jun 29
Last Quarter
Jul 8
New

Hourly Weather History & Observations

Time (CDT) Temp. Dew Point Humidity Pressure Visibility Wind Dir Wind Speed Gust Speed Precip Events Conditions
12:15 AM 59.4 °F 50.0 °F 71% 29.87 in 10.0 mi West 8.1 mph - N/A   Clear
12:35 AM 59.0 °F 50.0 °F 72% 29.87 in 10.0 mi West 8.1 mph - N/A   Clear
12:55 AM 59.0 °F 50.2 °F 73% 29.87 in 10.0 mi West 8.1 mph - N/A   Clear
1:15 AM 58.5 °F 50.2 °F 74% 29.88 in 10.0 mi West 8.1 mph - N/A   Clear
1:35 AM 59.0 °F 50.5 °F 73% 29.88 in 10.0 mi West 8.1 mph - N/A   Clear
1:55 AM 57.4 °F 50.4 °F 77% 29.89 in 10.0 mi West 8.1 mph - N/A   Clear
2:15 AM 57.4 °F 50.5 °F 78% 29.89 in 10.0 mi West 8.1 mph - N/A   Clear
2:35 AM 57.2 °F 50.2 °F 77% 29.89 in 10.0 mi West 9.2 mph - N/A   Clear
2:55 AM 56.3 °F 50.0 °F 79% 29.89 in 10.0 mi West 6.9 mph - N/A   Clear
3:15 AM 55.8 °F 50.4 °F 82% 29.89 in 10.0 mi West 10.4 mph - N/A   Clear
3:35 AM 55.8 °F 50.4 °F 82% 29.88 in 10.0 mi West 9.2 mph - N/A   Clear
3:55 AM 56.3 °F 50.5 °F 81% 29.87 in 10.0 mi West 10.4 mph - N/A   Clear
4:15 AM 56.3 °F 50.5 °F 81% 29.87 in 10.0 mi West 10.4 mph - N/A   Clear
4:35 AM 57.2 °F 50.9 °F 79% 29.87 in 10.0 mi West 12.7 mph 16.1 mph N/A   Clear
4:55 AM 57.7 °F 50.4 °F 76% 29.88 in 10.0 mi West 11.5 mph - N/A   Clear
5:15 AM 58.3 °F 50.2 °F 74% 29.88 in 10.0 mi West 12.7 mph - N/A   Clear
5:35 AM 58.1 °F 50.0 °F 74% 29.89 in 10.0 mi West 10.4 mph 16.1 mph N/A   Clear
5:55 AM 58.1 °F 50.0 °F 74% 29.89 in 10.0 mi West 13.8 mph - N/A   Clear
6:15 AM 59.0 °F 50.0 °F 72% 29.90 in 10.0 mi West 12.7 mph - N/A   Clear
6:35 AM 58.6 °F 50.0 °F 73% 29.90 in 10.0 mi West 10.4 mph - N/A   Clear
6:55 AM 58.8 °F 50.4 °F 73% 29.91 in 10.0 mi WNW 8.1 mph - N/A   Clear
7:15 AM 59.9 °F 50.9 °F 72% 29.91 in 10.0 mi WNW 8.1 mph - N/A   Clear
7:35 AM 62.2 °F 51.8 °F 69% 29.91 in 10.0 mi WNW 9.2 mph - N/A   Clear
7:55 AM 64.8 °F 51.3 °F 62% 29.91 in 10.0 mi WNW 13.8 mph 20.7 mph N/A   Clear
8:15 AM 66.9 °F 49.6 °F 54% 29.92 in 10.0 mi NW 17.3 mph 23.0 mph N/A   Clear
8:35 AM 68.2 °F 49.3 °F 51% 29.91 in 10.0 mi NW 20.7 mph 24.2 mph N/A   Clear
8:55 AM 69.6 °F 48.2 °F 46% 29.91 in 10.0 mi NW 18.4 mph 25.3 mph N/A   Clear
9:15 AM 70.5 °F 47.8 °F 44% 29.92 in 10.0 mi NW 20.7 mph 26.5 mph N/A   Clear
9:35 AM 71.4 °F 46.2 °F 41% 29.92 in 10.0 mi NW 21.9 mph 29.9 mph N/A   Clear
9:55 AM 72.0 °F 45.9 °F 39% 29.92 in 10.0 mi NW 24.2 mph 32.2 mph N/A   Clear
10:15 AM 72.7 °F 45.1 °F 37% 29.92 in 10.0 mi NW 21.9 mph 28.8 mph N/A   Clear
10:35 AM 73.2 °F 45.5 °F 37% 29.92 in 10.0 mi NW 18.4 mph 28.8 mph N/A   Clear
10:55 AM 73.9 °F 46.6 °F 38% 29.92 in 10.0 mi WNW 21.9 mph 28.8 mph N/A   Clear
11:15 AM 75.2 °F 46.4 °F 36% 29.92 in 10.0 mi NW 24.2 mph 31.1 mph N/A   Clear
11:35 AM 75.4 °F 46.0 °F 35% 29.92 in 10.0 mi NW 21.9 mph 32.2 mph N/A   Clear
11:55 AM 75.7 °F 46.2 °F 35% 29.92 in 10.0 mi NW 20.7 mph 31.1 mph N/A   Clear
12:15 PM 76.1 °F 46.0 °F 34% 29.92 in 10.0 mi NW 17.3 mph 33.4 mph N/A   Clear
12:35 PM 77.0 °F 45.9 °F 33% 29.92 in 10.0 mi NW 19.6 mph 29.9 mph N/A   Clear
12:55 PM 77.2 °F 44.6 °F 31% 29.91 in 10.0 mi WNW 18.4 mph 32.2 mph N/A   Clear
1:15 PM 78.6 °F 44.4 °F 30% 29.91 in 10.0 mi NW 18.4 mph 28.8 mph N/A   Clear
1:35 PM 78.8 °F 44.1 °F 29% 29.91 in 10.0 mi NW 21.9 mph 27.6 mph N/A   Clear
1:55 PM 78.8 °F 44.6 °F 30% 29.90 in 10.0 mi NW 20.7 mph 29.9 mph N/A   Clear
2:15 PM 79.7 °F 43.3 °F 28% 29.90 in 10.0 mi NW 21.9 mph 29.9 mph N/A   Clear
2:35 PM 80.2 °F 44.8 °F 29% 29.90 in 10.0 mi NW 17.3 mph 26.5 mph N/A   Clear
2:55 PM 81.0 °F 44.2 °F 27% 29.90 in 10.0 mi NNW 18.4 mph 26.5 mph N/A   Clear
3:15 PM 80.8 °F 44.6 °F 28% 29.90 in 10.0 mi NNW 17.3 mph 27.6 mph N/A   Clear
3:35 PM 81.3 °F 43.7 °F 26% 29.90 in 10.0 mi NNW 18.4 mph 25.3 mph N/A   Clear
3:55 PM 81.7 °F 44.4 °F 27% 29.90 in 10.0 mi NNW 18.4 mph 25.3 mph N/A   Clear
4:15 PM 82.2 °F 43.9 °F 26% 29.89 in 10.0 mi NNW 16.1 mph 23.0 mph N/A   Clear
4:35 PM 82.2 °F 44.1 °F 26% 29.89 in 10.0 mi North 15.0 mph 25.3 mph N/A   Clear
4:55 PM 81.7 °F 43.7 °F 26% 29.89 in 10.0 mi NW 12.7 mph 25.3 mph N/A   Clear
5:15 PM 81.5 °F 44.4 °F 27% 29.89 in 10.0 mi North 11.5 mph 23.0 mph N/A   Clear
5:35 PM 81.9 °F 44.8 °F 27% 29.89 in 10.0 mi NNW 18.4 mph 25.3 mph N/A   Clear
5:55 PM 81.5 °F 43.7 °F 26% 29.89 in 10.0 mi NNW 16.1 mph 23.0 mph N/A   Clear
6:15 PM 81.5 °F 42.8 °F 25% 29.89 in 10.0 mi NNW 16.1 mph 25.3 mph N/A   Clear
6:35 PM 81.5 °F 44.6 °F 27% 29.89 in 10.0 mi North 13.8 mph 18.4 mph N/A   Clear
6:55 PM 80.6 °F 42.8 °F 26% 29.89 in 10.0 mi North 15.0 mph 23.0 mph N/A   Clear
7:15 PM 80.1 °F 43.2 °F 27% 29.90 in 10.0 mi NNW 16.1 mph 19.6 mph N/A   Clear
7:35 PM 79.7 °F 44.2 °F 28% 29.90 in 10.0 mi North 12.7 mph 18.4 mph N/A   Clear
7:55 PM 78.4 °F 45.3 °F 31% 29.90 in 10.0 mi North 11.5 mph - N/A   Clear
8:15 PM 77.0 °F 45.7 °F 33% 29.90 in 10.0 mi North 9.2 mph - N/A   Clear
8:35 PM 75.0 °F 45.3 °F 35% 29.90 in 10.0 mi North 9.2 mph - N/A   Clear
8:55 PM 72.0 °F 46.0 °F 40% 29.89 in 10.0 mi NNE 10.4 mph - N/A   Clear
9:15 PM 69.8 °F 46.9 °F 44% 29.89 in 10.0 mi NNE 9.2 mph - N/A   Clear
9:35 PM 66.4 °F 47.7 °F 51% 29.89 in 10.0 mi NNE 10.4 mph - N/A   Clear
9:55 PM 65.5 °F 47.8 °F 53% 29.90 in 10.0 mi NE 6.9 mph - N/A   Clear
10:15 PM 63.3 °F 48.0 °F 57% 29.90 in 10.0 mi NE 10.4 mph - N/A   Clear
10:35 PM 63.5 °F 48.4 °F 58% 29.90 in 10.0 mi NE 8.1 mph - N/A   Clear
10:55 PM 64.8 °F 48.2 °F 55% 29.91 in 10.0 mi Calm Calm - N/A   Clear
11:15 PM 61.5 °F 48.2 °F 62% 29.91 in 10.0 mi Calm Calm - N/A   Clear
11:35 PM 61.7 °F 48.2 °F 61% 29.91 in 10.0 mi NE 5.8 mph - N/A   Clear
11:55 PM 58.3 °F 48.7 °F 71% 29.90 in 10.0 mi NE 10.4 mph - N/A   Clear